METAR* REPORTS - Stations within 60 miles

(*Meteorological Terminal Aviation Routine weather report)

 

KRDG - Reading, Pennsylvania, USA
Distance from station: SE 19mi, 31km
Updated: Mon, 04-Mar-2024 11:54am EST
Few Clouds
Few Clouds
 Wind from varies
Wind: varies 5 mph , 7 km/h
Temperature: 63°F , 17°C
Dew Point: 48°F , 9°C
Humidity: 59%
Barometer: 30.30 inHg , 1026.1 hPa
Clouds: Few Clouds
Visibility: 10 miles , 16 km
Cloud details: Few Clouds 5500 ft
2024/03/04 16:54 KRDG 041654Z VRB04KT 10SM FEW055 17/09 A3030 RMK AO2 SLP267 T01720089
KLNS - Lancaster, Pennsylvania, USA
Distance from station: S 33mi, 53km
Updated: Mon, 04-Mar-2024 11:53am EST
Clear
Clear
 Wind from ESE
Wind: ESE 10 mph , 17 km/h
Temperature: 64°F , 18°C
Dew Point: 48°F , 9°C
Humidity: 56%
Barometer: 30.30 inHg , 1026.1 hPa
Clouds: Clear
Visibility: 10 miles , 16 km
2024/03/04 16:53 KLNS 041653Z 12009KT 10SM CLR 18/09 A3030 RMK AO2 SLP259 T01830094
 
KSEG - Selinsgrove, Pennsylvania, USA
Distance from station: WNW 39mi, 62km
Updated: Mon, 04-Mar-2024 11:53am EST
Clear
Clear
 Wind from SSE
Wind: SSE 13 mph , 20 km/h, Gust: 18 mph , 30 km/h
Temperature: 63°F , 17°C
Dew Point: 46°F , 8°C
Humidity: 56%
Barometer: 30.28 inHg , 1025.4 hPa
Clouds: Clear
Visibility: 10 miles , 16 km
2024/03/04 16:53 KSEG 041653Z AUTO 16011G16KT 10SM CLR 17/08 A3028 RMK AO2 SLP254 T01720083
KABE - Allentown, Pennsylvania, USA
Distance from station: E 39mi, 63km
Updated: Mon, 04-Mar-2024 11:51am EST
Overcast
Overcast
 Wind from NE
Wind: NE 6 mph , 9 km/h
Temperature: 55°F , 13°C
Dew Point: 45°F , 7°C
Humidity: 67%
Barometer: 30.33 inHg , 1027.1 hPa
Clouds: Overcast
Visibility: 10 miles , 16 km
Cloud details: Overcast 6000 ft
2024/03/04 16:51 KABE 041651Z 05005KT 10SM OVC060 13/07 A3033 RMK AO2 SLP271 T01330072
 
KMDT - Middletown, Pennsylvania, USA
Distance from station: SW 40mi, 65km
Updated: Mon, 04-Mar-2024 11:56am EST
Partly Cloudy
Partly Cloudy
 Wind from ESE
Wind: ESE 9 mph , 15 km/h
Temperature: 64°F , 18°C
Dew Point: 46°F , 8°C
Humidity: 52%
Barometer: 30.28 inHg , 1025.4 hPa
Clouds: Partly Cloudy
Visibility: 10 miles , 16 km
Cloud details: Few Clouds 2500 ft
Partly Cloudy 15000 ft
2024/03/04 16:56 KMDT 041656Z 12008KT 10SM FEW025 SCT150 18/08 A3028 RMK AO2 SLP256 T01830083
KPTW - Pottstown, Pennsylvania, USA
Distance from station: SE 42mi, 67km
Updated: Mon, 04-Mar-2024 11:54am EST
Overcast
Overcast
 Wind from varies
Wind: varies 5 mph , 7 km/h
Temperature: 57°F , 14°C
Dew Point: 46°F , 8°C
Humidity: 67%
Barometer: 30.34 inHg , 1027.4 hPa
Clouds: Overcast
Visibility: 10 miles , 16 km
Cloud details: Overcast 5500 ft
2024/03/04 16:54 KPTW 041654Z AUTO VRB04KT 10SM OVC055 14/08 A3034 RMK AO2 SLP271 T01390083
 
KCXY - Harrisburg, Pennsylvania, USA
Distance from station: SW 43mi, 69km
Updated: Mon, 04-Mar-2024 11:56am EST
Clear
Clear
 Wind from E
Wind: E 12 mph , 19 km/h
Temperature: 66°F , 19°C
Dew Point: 46°F , 8°C
Humidity: 49%
Barometer: 30.28 inHg , 1025.4 hPa
Clouds: Clear
Visibility: 10 miles , 16 km
2024/03/04 16:56 KCXY 041656Z 10010KT 10SM CLR 19/08 A3028 RMK AO2 SLP256 T01890083 $
KUKT - Quakertown Arp, Pennsylvania, USA
Distance from station: ESE 44mi, 70km
Updated: Mon, 04-Mar-2024 11:55am EST
Overcast
Overcast
 Wind from ENE
Wind: ENE 5 mph , 7 km/h
Temperature: 57°F , 14°C
Dew Point: 48°F , 9°C
Humidity: 72%
Barometer: 30.33 inHg , 1027.1 hPa
Clouds: Overcast
Visibility: 10 miles , 16 km
Cloud details: Overcast 5500 ft
2024/03/04 16:55 KUKT 041655Z AUTO 07004KT 10SM OVC055 14/09 A3033 RMK AO2
 
KMQS - Coatesville, Pennsylvania, USA
Distance from station: SSE 45mi, 72km
Updated: Mon, 04-Mar-2024 11:55am EST
Mostly Cloudy
Mostly Cloudy
 Wind from SE
Wind: SE 6 mph , 9 km/h
Temperature: 59°F , 15°C
Dew Point: 52°F , 11°C
Humidity: 77%
Barometer: 30.32 inHg , 1026.8 hPa
Clouds: Mostly Cloudy
Visibility: 7 miles , 11 km
Cloud details: Mostly Cloudy 5000 ft
2024/03/04 16:55 KMQS 041655Z AUTO 13005KT 7SM BKN050 15/11 A3032 RMK AO2
KMPO - Mt. Pocono, Pennsylvania, USA
Distance from station: NE 57mi, 92km
Updated: Mon, 04-Mar-2024 11:53am EST
Overcast
Overcast
 Wind from SE
Wind: SE 9 mph , 15 km/h
Temperature: 52°F , 11°C
Dew Point: 45°F , 7°C
Humidity: 77%
Barometer: 30.32 inHg , 1026.8 hPa
Clouds: Overcast
Visibility: 10 miles , 16 km
Cloud details: Overcast 4400 ft
2024/03/04 16:53 KMPO 041653Z AUTO 13008KT 10SM OVC044 11/07 A3032 RMK AO2 SLP274 T01110067
 
KAVP - Avoca/Wilkes B., Pennsylvania, USA
Distance from station: NNE 58mi, 93km
Updated: Mon, 04-Mar-2024 11:54am EST
Overcast
Overcast
 Wind from SSW
Wind: SSW 9 mph , 15 km/h, Gust: 18 mph , 30 km/h
Temperature: 63°F , 17°C
Dew Point: 46°F , 8°C
Humidity: 56%
Barometer: 30.29 inHg , 1025.7 hPa
Clouds: Overcast
Visibility: 10 miles , 16 km
Cloud details: Few Clouds 3800 ft
Overcast 4800 ft
2024/03/04 16:54 KAVP 041654Z 20008G16KT 10SM FEW038 OVC048 17/08 A3029 RMK AO2 SLP255 T01720078
KTHV - York, Pennsylvania, USA
Distance from station: SW 59mi, 94km
Updated: Mon, 04-Mar-2024 11:53am EST
Few Clouds
Few Clouds
 Wind from SSE
Wind: SSE 9 mph , 15 km/h
Temperature: 66°F , 19°C
Dew Point: 48°F , 9°C
Humidity: 52%
Barometer: 30.28 inHg , 1025.4 hPa
Clouds: Few Clouds
Visibility: 10 miles , 16 km
Cloud details: Few Clouds 4000 ft
2024/03/04 16:53 KTHV 041653Z AUTO 16008KT 10SM FEW040 19/09 A3028 RMK AO2 SLP256 T01890089
 
KDYL - Doylestown, Pennsylvania, USA
Distance from station: ESE 59mi, 95km
Updated: Mon, 04-Mar-2024 11:54am EST
Overcast
Overcast
 Wind from calm
Wind: Calm
Temperature: 63°F , 17°C
Dew Point: 48°F , 9°C
Humidity: 59%
Barometer: 30.32 inHg , 1026.8 hPa
Clouds: Overcast
Visibility: 10 miles , 16 km
Cloud details: Overcast 5500 ft
2024/03/04 16:54 KDYL 041654Z AUTO 00000KT 10SM OVC055 17/09 A3032 RMK AO2 SLP268 T01670089
KIPT - Williamsport, Pennsylvania, USA
Distance from station: NW 60mi, 96km
Updated: Mon, 04-Mar-2024 11:54am EST
Clear
Clear
 Wind from W
Wind: W 9 mph , 15 km/h
Temperature: 63°F , 17°C
Dew Point: 46°F , 8°C
Humidity: 56%
Barometer: 30.26 inHg , 1024.7 hPa
Clouds: Clear
Visibility: 10 miles , 16 km
2024/03/04 16:54 KIPT 041654Z 27008KT 10SM CLR 17/08 A3026 RMK AO2 SLP249 T01720078